sensor_id;sensor_type;location;lat;lon;timestamp;temperature;humidity
15630;DHT22;7914;50.842;0.166;2022-12-10T00:01:13;-2.60;99.90
15630;DHT22;7914;50.842;0.166;2022-12-10T00:03:39;-2.70;99.90
15630;DHT22;7914;50.842;0.166;2022-12-10T00:06:07;-2.70;99.90
15630;DHT22;7914;50.842;0.166;2022-12-10T00:08:34;-2.70;99.90
15630;DHT22;7914;50.842;0.166;2022-12-10T00:11:02;-2.80;99.90
15630;DHT22;7914;50.842;0.166;2022-12-10T00:13:28;-2.80;99.90
15630;DHT22;7914;50.842;0.166;2022-12-10T00:15:54;-2.80;99.90
15630;DHT22;7914;50.842;0.166;2022-12-10T00:18:20;-2.70;99.90
15630;DHT22;7914;50.842;0.166;2022-12-10T00:20:45;-2.80;99.90
15630;DHT22;7914;50.842;0.166;2022-12-10T00:23:11;-2.80;99.90
15630;DHT22;7914;50.842;0.166;2022-12-10T00:25:37;-2.70;99.90
15630;DHT22;7914;50.842;0.166;2022-12-10T00:28:03;-2.70;99.90
15630;DHT22;7914;50.842;0.166;2022-12-10T00:30:28;-2.70;99.90
15630;DHT22;7914;50.842;0.166;2022-12-10T00:32:54;-2.70;99.90
15630;DHT22;7914;50.842;0.166;2022-12-10T00:35:19;-2.70;99.90
15630;DHT22;7914;50.842;0.166;2022-12-10T00:37:45;-2.80;99.90
15630;DHT22;7914;50.842;0.166;2022-12-10T00:40:11;-2.80;99.90
15630;DHT22;7914;50.842;0.166;2022-12-10T00:42:37;-2.90;99.90
15630;DHT22;7914;50.842;0.166;2022-12-10T00:45:04;-2.90;99.90
15630;DHT22;7914;50.842;0.166;2022-12-10T00:47:29;-2.90;99.90
15630;DHT22;7914;50.842;0.166;2022-12-10T00:49:55;-2.90;99.90
15630;DHT22;7914;50.842;0.166;2022-12-10T00:52:21;-2.90;99.90
15630;DHT22;7914;50.842;0.166;2022-12-10T00:54:46;-3.00;99.90
15630;DHT22;7914;50.842;0.166;2022-12-10T00:57:12;-3.00;99.90
15630;DHT22;7914;50.842;0.166;2022-12-10T00:59:37;-2.90;99.90
15630;DHT22;7914;50.842;0.166;2022-12-10T01:02:03;-2.90;99.90
15630;DHT22;7914;50.842;0.166;2022-12-10T01:04:29;-3.00;99.90
15630;DHT22;7914;50.842;0.166;2022-12-10T01:06:54;-3.10;99.90
15630;DHT22;7914;50.842;0.166;2022-12-10T01:09:23;-3.10;99.90
15630;DHT22;7914;50.842;0.166;2022-12-10T01:11:51;-3.10;99.90
15630;DHT22;7914;50.842;0.166;2022-12-10T01:14:23;-3.10;99.90
15630;DHT22;7914;50.842;0.166;2022-12-10T01:16:53;-3.20;99.90
15630;DHT22;7914;50.842;0.166;2022-12-10T01:19:19;-3.20;99.90
15630;DHT22;7914;50.842;0.166;2022-12-10T01:21:49;-3.20;99.90
15630;DHT22;7914;50.842;0.166;2022-12-10T01:24:15;-3.10;99.90
15630;DHT22;7914;50.842;0.166;2022-12-10T01:26:40;-3.10;99.90
15630;DHT22;7914;50.842;0.166;2022-12-10T01:29:06;-3.20;99.90
15630;DHT22;7914;50.842;0.166;2022-12-10T01:31:34;-3.20;99.90
15630;DHT22;7914;50.842;0.166;2022-12-10T01:34:01;-3.20;99.90
15630;DHT22;7914;50.842;0.166;2022-12-10T01:36:30;-3.30;99.90
15630;DHT22;7914;50.842;0.166;2022-12-10T01:38:56;-3.30;99.90
15630;DHT22;7914;50.842;0.166;2022-12-10T01:41:25;-3.30;99.90
15630;DHT22;7914;50.842;0.166;2022-12-10T01:46:33;-3.40;99.90
15630;DHT22;7914;50.842;0.166;2022-12-10T01:49:01;-3.50;99.90
15630;DHT22;7914;50.842;0.166;2022-12-10T01:51:30;-3.60;99.90
15630;DHT22;7914;50.842;0.166;2022-12-10T01:53:56;-3.60;99.90
15630;DHT22;7914;50.842;0.166;2022-12-10T01:56:22;-3.50;99.90
15630;DHT22;7914;50.842;0.166;2022-12-10T01:58:54;-3.50;99.90
15630;DHT22;7914;50.842;0.166;2022-12-10T02:07:05;-3.40;99.90
15630;DHT22;7914;50.842;0.166;2022-12-10T02:09:36;-3.40;99.90
15630;DHT22;7914;50.842;0.166;2022-12-10T02:17:49;-3.50;99.90
15630;DHT22;7914;50.842;0.166;2022-12-10T02:20:40;-3.50;99.90
15630;DHT22;7914;50.842;0.166;2022-12-10T02:23:16;-3.40;99.90
15630;DHT22;7914;50.842;0.166;2022-12-10T02:25:53;-3.40;99.90
15630;DHT22;7914;50.842;0.166;2022-12-10T02:28:49;-3.40;99.90
15630;DHT22;7914;50.842;0.166;2022-12-10T02:31:24;-3.40;99.90
15630;DHT22;7914;50.842;0.166;2022-12-10T02:33:54;-3.40;99.90
15630;DHT22;7914;50.842;0.166;2022-12-10T02:36:22;-3.30;99.90
15630;DHT22;7914;50.842;0.166;2022-12-10T02:38:50;-3.30;99.90
15630;DHT22;7914;50.842;0.166;2022-12-10T02:41:22;-3.30;99.90
15630;DHT22;7914;50.842;0.166;2022-12-10T02:43:51;-3.30;99.90
15630;DHT22;7914;50.842;0.166;2022-12-10T02:46:18;-3.30;99.90
15630;DHT22;7914;50.842;0.166;2022-12-10T02:48:45;-3.30;99.90
15630;DHT22;7914;50.842;0.166;2022-12-10T02:51:12;-3.40;99.90
15630;DHT22;7914;50.842;0.166;2022-12-10T02:53:42;-3.40;99.90
15630;DHT22;7914;50.842;0.166;2022-12-10T02:56:52;-3.50;99.90
15630;DHT22;7914;50.842;0.166;2022-12-10T03:02:16;-3.60;99.90
15630;DHT22;7914;50.842;0.166;2022-12-10T03:05:04;-3.60;99.90
15630;DHT22;7914;50.842;0.166;2022-12-10T03:07:37;-3.60;99.90
15630;DHT22;7914;50.842;0.166;2022-12-10T03:10:31;-3.60;99.90
15630;DHT22;7914;50.842;0.166;2022-12-10T03:13:00;-3.60;99.90
15630;DHT22;7914;50.842;0.166;2022-12-10T03:15:34;-3.60;99.90
15630;DHT22;7914;50.842;0.166;2022-12-10T03:18:02;-3.50;99.90
15630;DHT22;7914;50.842;0.166;2022-12-10T03:20:32;-3.60;99.90
15630;DHT22;7914;50.842;0.166;2022-12-10T03:22:59;-3.60;99.90
15630;DHT22;7914;50.842;0.166;2022-12-10T03:25:26;-3.60;99.90
15630;DHT22;7914;50.842;0.166;2022-12-10T03:27:55;-3.60;99.90
15630;DHT22;7914;50.842;0.166;2022-12-10T03:30:22;-3.70;99.90
15630;DHT22;7914;50.842;0.166;2022-12-10T03:32:49;-3.70;99.90
15630;DHT22;7914;50.842;0.166;2022-12-10T03:35:15;-3.80;99.90
15630;DHT22;7914;50.842;0.166;2022-12-10T03:37:42;-3.80;99.90
15630;DHT22;7914;50.842;0.166;2022-12-10T03:40:08;-3.80;99.90
15630;DHT22;7914;50.842;0.166;2022-12-10T03:42:36;-3.80;99.90
15630;DHT22;7914;50.842;0.166;2022-12-10T03:45:03;-3.70;99.90
15630;DHT22;7914;50.842;0.166;2022-12-10T03:47:29;-3.70;99.90
15630;DHT22;7914;50.842;0.166;2022-12-10T03:49:56;-3.80;99.90
15630;DHT22;7914;50.842;0.166;2022-12-10T03:52:21;-3.80;99.90
15630;DHT22;7914;50.842;0.166;2022-12-10T03:54:47;-3.90;99.90
15630;DHT22;7914;50.842;0.166;2022-12-10T03:57:13;-3.80;99.90
15630;DHT22;7914;50.842;0.166;2022-12-10T03:59:38;-3.80;99.90
15630;DHT22;7914;50.842;0.166;2022-12-10T04:02:04;-3.80;99.90
15630;DHT22;7914;50.842;0.166;2022-12-10T04:04:30;-3.90;99.90
15630;DHT22;7914;50.842;0.166;2022-12-10T04:06:56;-3.90;99.90
15630;DHT22;7914;50.842;0.166;2022-12-10T04:09:21;-3.90;99.90
15630;DHT22;7914;50.842;0.166;2022-12-10T04:11:47;-3.80;99.90
15630;DHT22;7914;50.842;0.166;2022-12-10T04:14:13;-3.80;99.90
15630;DHT22;7914;50.842;0.166;2022-12-10T04:16:58;-3.80;99.90
15630;DHT22;7914;50.842;0.166;2022-12-10T04:19:24;-3.80;99.90
15630;DHT22;7914;50.842;0.166;2022-12-10T04:21:50;-3.70;99.90
15630;DHT22;7914;50.842;0.166;2022-12-10T04:24:35;-3.70;99.90
15630;DHT22;7914;50.842;0.166;2022-12-10T04:27:24;-3.70;99.90
15630;DHT22;7914;50.842;0.166;2022-12-10T04:29:52;-3.70;99.90
15630;DHT22;7914;50.842;0.166;2022-12-10T04:32:18;-3.70;99.90
15630;DHT22;7914;50.842;0.166;2022-12-10T04:34:44;-3.70;99.90
15630;DHT22;7914;50.842;0.166;2022-12-10T04:37:10;-3.70;99.90
15630;DHT22;7914;50.842;0.166;2022-12-10T04:39:37;-3.70;99.90
15630;DHT22;7914;50.842;0.166;2022-12-10T04:42:03;-3.80;99.90
15630;DHT22;7914;50.842;0.166;2022-12-10T04:44:29;-3.80;99.90
15630;DHT22;7914;50.842;0.166;2022-12-10T04:46:55;-3.80;99.90
15630;DHT22;7914;50.842;0.166;2022-12-10T04:49:20;-3.70;99.90
15630;DHT22;7914;50.842;0.166;2022-12-10T04:51:46;-3.70;99.90
15630;DHT22;7914;50.842;0.166;2022-12-10T04:54:13;-3.70;99.90
15630;DHT22;7914;50.842;0.166;2022-12-10T04:56:39;-3.80;99.90
15630;DHT22;7914;50.842;0.166;2022-12-10T04:59:06;-3.80;99.90
15630;DHT22;7914;50.842;0.166;2022-12-10T05:01:32;-3.80;99.90
15630;DHT22;7914;50.842;0.166;2022-12-10T05:03:59;-3.80;99.90
15630;DHT22;7914;50.842;0.166;2022-12-10T05:06:25;-3.80;99.90
15630;DHT22;7914;50.842;0.166;2022-12-10T05:08:51;-3.90;99.90
15630;DHT22;7914;50.842;0.166;2022-12-10T05:11:19;-3.80;99.90
15630;DHT22;7914;50.842;0.166;2022-12-10T05:13:45;-3.80;99.90
15630;DHT22;7914;50.842;0.166;2022-12-10T05:16:14;-3.80;99.90
15630;DHT22;7914;50.842;0.166;2022-12-10T05:18:41;-3.70;99.90
15630;DHT22;7914;50.842;0.166;2022-12-10T05:21:10;-3.80;99.90
15630;DHT22;7914;50.842;0.166;2022-12-10T05:23:39;-3.80;99.90
15630;DHT22;7914;50.842;0.166;2022-12-10T05:26:10;-3.80;99.90
15630;DHT22;7914;50.842;0.166;2022-12-10T05:31:15;-3.80;99.90
15630;DHT22;7914;50.842;0.166;2022-12-10T05:33:42;-3.80;99.90
15630;DHT22;7914;50.842;0.166;2022-12-10T05:36:10;-3.90;99.90
15630;DHT22;7914;50.842;0.166;2022-12-10T05:38:36;-4.00;99.90
15630;DHT22;7914;50.842;0.166;2022-12-10T05:41:14;-4.00;99.90
15630;DHT22;7914;50.842;0.166;2022-12-10T05:43:41;-4.00;99.90
15630;DHT22;7914;50.842;0.166;2022-12-10T05:46:10;-4.00;99.90
15630;DHT22;7914;50.842;0.166;2022-12-10T05:48:37;-4.10;99.90
15630;DHT22;7914;50.842;0.166;2022-12-10T05:51:24;-4.10;99.90
15630;DHT22;7914;50.842;0.166;2022-12-10T05:53:51;-4.10;99.90
15630;DHT22;7914;50.842;0.166;2022-12-10T05:56:19;-4.10;99.90
15630;DHT22;7914;50.842;0.166;2022-12-10T05:58:47;-4.10;99.90
15630;DHT22;7914;50.842;0.166;2022-12-10T06:01:21;-4.10;99.90
15630;DHT22;7914;50.842;0.166;2022-12-10T06:03:47;-4.10;99.90
15630;DHT22;7914;50.842;0.166;2022-12-10T06:06:13;-4.10;99.90
15630;DHT22;7914;50.842;0.166;2022-12-10T06:08:39;-4.10;99.90
15630;DHT22;7914;50.842;0.166;2022-12-10T06:11:08;-4.10;99.90
15630;DHT22;7914;50.842;0.166;2022-12-10T06:13:34;-4.10;99.90
15630;DHT22;7914;50.842;0.166;2022-12-10T06:16:07;-4.00;99.90
15630;DHT22;7914;50.842;0.166;2022-12-10T06:18:34;-4.10;99.90
15630;DHT22;7914;50.842;0.166;2022-12-10T06:21:06;-4.10;99.90
15630;DHT22;7914;50.842;0.166;2022-12-10T06:23:34;-4.10;99.90
15630;DHT22;7914;50.842;0.166;2022-12-10T06:26:07;-4.10;99.90
15630;DHT22;7914;50.842;0.166;2022-12-10T06:28:33;-4.10;99.90
15630;DHT22;7914;50.842;0.166;2022-12-10T06:30:59;-4.00;99.90
15630;DHT22;7914;50.842;0.166;2022-12-10T06:33:26;-4.10;99.90
15630;DHT22;7914;50.842;0.166;2022-12-10T06:35:52;-4.00;99.90
15630;DHT22;7914;50.842;0.166;2022-12-10T06:38:17;-4.00;99.90
15630;DHT22;7914;50.842;0.166;2022-12-10T06:40:43;-4.10;99.90
15630;DHT22;7914;50.842;0.166;2022-12-10T06:43:09;-4.00;99.90
15630;DHT22;7914;50.842;0.166;2022-12-10T06:45:38;-4.10;99.90
15630;DHT22;7914;50.842;0.166;2022-12-10T06:48:04;-4.20;99.90
15630;DHT22;7914;50.842;0.166;2022-12-10T06:50:30;-4.20;99.90
15630;DHT22;7914;50.842;0.166;2022-12-10T06:52:56;-4.20;99.90
15630;DHT22;7914;50.842;0.166;2022-12-10T06:55:22;-4.30;99.90
15630;DHT22;7914;50.842;0.166;2022-12-10T06:57:51;-4.30;99.90
15630;DHT22;7914;50.842;0.166;2022-12-10T07:00:17;-4.40;99.90
15630;DHT22;7914;50.842;0.166;2022-12-10T07:02:43;-4.40;99.90
15630;DHT22;7914;50.842;0.166;2022-12-10T07:05:08;-4.40;99.90
15630;DHT22;7914;50.842;0.166;2022-12-10T07:07:35;-4.30;99.90
15630;DHT22;7914;50.842;0.166;2022-12-10T07:10:02;-4.30;99.90
15630;DHT22;7914;50.842;0.166;2022-12-10T07:12:27;-4.30;99.90
15630;DHT22;7914;50.842;0.166;2022-12-10T07:14:53;-4.20;99.90
15630;DHT22;7914;50.842;0.166;2022-12-10T07:17:19;-4.30;99.90
15630;DHT22;7914;50.842;0.166;2022-12-10T07:19:44;-4.40;99.90
15630;DHT22;7914;50.842;0.166;2022-12-10T07:22:10;-4.40;99.90
15630;DHT22;7914;50.842;0.166;2022-12-10T07:24:36;-4.40;99.90
15630;DHT22;7914;50.842;0.166;2022-12-10T07:27:05;-4.40;99.90
15630;DHT22;7914;50.842;0.166;2022-12-10T07:29:30;-4.40;99.90
15630;DHT22;7914;50.842;0.166;2022-12-10T07:31:56;-4.30;99.90
15630;DHT22;7914;50.842;0.166;2022-12-10T07:34:22;-4.30;99.90
15630;DHT22;7914;50.842;0.166;2022-12-10T07:36:47;-4.20;99.90
15630;DHT22;7914;50.842;0.166;2022-12-10T07:39:14;-4.20;99.90
15630;DHT22;7914;50.842;0.166;2022-12-10T07:41:50;-4.20;99.90
15630;DHT22;7914;50.842;0.166;2022-12-10T07:44:22;-4.20;99.90
15630;DHT22;7914;50.842;0.166;2022-12-10T07:46:49;-4.10;99.90
15630;DHT22;7914;50.842;0.166;2022-12-10T07:49:14;-4.10;99.90
15630;DHT22;7914;50.842;0.166;2022-12-10T07:51:44;-4.10;99.90
15630;DHT22;7914;50.842;0.166;2022-12-10T07:54:11;-4.10;99.90
15630;DHT22;7914;50.842;0.166;2022-12-10T07:56:37;-4.10;99.90
15630;DHT22;7914;50.842;0.166;2022-12-10T07:59:02;-4.10;99.90
15630;DHT22;7914;50.842;0.166;2022-12-10T08:01:28;-4.20;99.90
15630;DHT22;7914;50.842;0.166;2022-12-10T08:03:55;-4.20;99.90
15630;DHT22;7914;50.842;0.166;2022-12-10T08:06:25;-4.20;99.90
15630;DHT22;7914;50.842;0.166;2022-12-10T08:08:51;-4.20;99.90
15630;DHT22;7914;50.842;0.166;2022-12-10T08:11:19;-4.20;99.90
15630;DHT22;7914;50.842;0.166;2022-12-10T08:13:45;-4.20;99.90
15630;DHT22;7914;50.842;0.166;2022-12-10T08:16:14;-4.10;99.90
15630;DHT22;7914;50.842;0.166;2022-12-10T08:18:40;-4.10;99.90
15630;DHT22;7914;50.842;0.166;2022-12-10T08:21:08;-4.10;99.90
15630;DHT22;7914;50.842;0.166;2022-12-10T08:23:34;-4.00;99.90
15630;DHT22;7914;50.842;0.166;2022-12-10T08:26:04;-4.00;99.90
15630;DHT22;7914;50.842;0.166;2022-12-10T08:28:31;-3.90;99.90
15630;DHT22;7914;50.842;0.166;2022-12-10T08:30:56;-3.80;99.90
15630;DHT22;7914;50.842;0.166;2022-12-10T08:33:22;-3.70;99.90
15630;DHT22;7914;50.842;0.166;2022-12-10T08:35:48;-3.60;99.90
15630;DHT22;7914;50.842;0.166;2022-12-10T08:38:13;-3.50;99.90
15630;DHT22;7914;50.842;0.166;2022-12-10T08:40:40;-3.40;99.90
15630;DHT22;7914;50.842;0.166;2022-12-10T08:43:06;-3.30;99.90
15630;DHT22;7914;50.842;0.166;2022-12-10T08:45:32;-3.20;99.90
15630;DHT22;7914;50.842;0.166;2022-12-10T08:47:58;-3.00;99.90
15630;DHT22;7914;50.842;0.166;2022-12-10T08:50:23;-2.90;99.90
15630;DHT22;7914;50.842;0.166;2022-12-10T08:52:49;-2.80;99.90
15630;DHT22;7914;50.842;0.166;2022-12-10T08:55:15;-2.70;99.90
15630;DHT22;7914;50.842;0.166;2022-12-10T08:57:40;-2.70;99.90
15630;DHT22;7914;50.842;0.166;2022-12-10T09:00:06;-2.60;99.90
15630;DHT22;7914;50.842;0.166;2022-12-10T09:02:32;-2.50;99.90
15630;DHT22;7914;50.842;0.166;2022-12-10T09:04:58;-2.40;99.90
15630;DHT22;7914;50.842;0.166;2022-12-10T09:07:24;-2.30;99.90
15630;DHT22;7914;50.842;0.166;2022-12-10T09:09:50;-2.20;99.90
15630;DHT22;7914;50.842;0.166;2022-12-10T09:12:15;-2.10;99.90
15630;DHT22;7914;50.842;0.166;2022-12-10T09:14:41;-1.90;99.90
15630;DHT22;7914;50.842;0.166;2022-12-10T09:17:07;-1.80;99.90
15630;DHT22;7914;50.842;0.166;2022-12-10T09:19:33;-1.70;99.90
15630;DHT22;7914;50.842;0.166;2022-12-10T09:21:59;-1.70;99.90
15630;DHT22;7914;50.842;0.166;2022-12-10T09:24:24;-1.60;99.90
15630;DHT22;7914;50.842;0.166;2022-12-10T09:26:50;-1.50;99.90
15630;DHT22;7914;50.842;0.166;2022-12-10T09:29:16;-1.40;99.90
15630;DHT22;7914;50.842;0.166;2022-12-10T09:31:41;-1.30;99.90
15630;DHT22;7914;50.842;0.166;2022-12-10T09:34:08;-1.10;99.90
15630;DHT22;7914;50.842;0.166;2022-12-10T09:36:34;-1.10;99.90
15630;DHT22;7914;50.842;0.166;2022-12-10T09:38:59;-0.90;99.90
15630;DHT22;7914;50.842;0.166;2022-12-10T09:47:10;-0.70;99.90
15630;DHT22;7914;50.842;0.166;2022-12-10T09:52:08;-0.50;99.90
15630;DHT22;7914;50.842;0.166;2022-12-10T09:54:43;-0.40;99.90
15630;DHT22;7914;50.842;0.166;2022-12-10T09:57:22;-0.30;99.90
15630;DHT22;7914;50.842;0.166;2022-12-10T09:59:51;-0.30;99.90
15630;DHT22;7914;50.842;0.166;2022-12-10T10:02:26;-0.20;99.90
15630;DHT22;7914;50.842;0.166;2022-12-10T10:05:24;-0.20;99.90
15630;DHT22;7914;50.842;0.166;2022-12-10T10:08:15;-0.20;99.90
15630;DHT22;7914;50.842;0.166;2022-12-10T10:10:44;0.00;99.90
15630;DHT22;7914;50.842;0.166;2022-12-10T10:15:52;0.20;99.90
15630;DHT22;7914;50.842;0.166;2022-12-10T10:18:43;0.20;99.90
15630;DHT22;7914;50.842;0.166;2022-12-10T10:21:33;0.20;99.90
15630;DHT22;7914;50.842;0.166;2022-12-10T10:23:59;0.30;99.90
15630;DHT22;7914;50.842;0.166;2022-12-10T10:26:28;0.30;99.90
15630;DHT22;7914;50.842;0.166;2022-12-10T10:29:00;0.40;99.90
15630;DHT22;7914;50.842;0.166;2022-12-10T10:31:29;0.50;99.90
15630;DHT22;7914;50.842;0.166;2022-12-10T10:33:58;0.60;99.90
15630;DHT22;7914;50.842;0.166;2022-12-10T10:36:27;0.70;99.90
15630;DHT22;7914;50.842;0.166;2022-12-10T10:38:53;0.70;99.90
15630;DHT22;7914;50.842;0.166;2022-12-10T10:41:19;0.80;99.90
15630;DHT22;7914;50.842;0.166;2022-12-10T10:43:45;0.90;99.90
15630;DHT22;7914;50.842;0.166;2022-12-10T10:46:23;0.90;99.90
15630;DHT22;7914;50.842;0.166;2022-12-10T10:48:49;0.90;99.90
15630;DHT22;7914;50.842;0.166;2022-12-10T10:51:21;1.00;99.90
15630;DHT22;7914;50.842;0.166;2022-12-10T10:53:53;1.20;99.90
15630;DHT22;7914;50.842;0.166;2022-12-10T10:56:37;1.20;99.90
15630;DHT22;7914;50.842;0.166;2022-12-10T10:59:30;1.30;99.90
15630;DHT22;7914;50.842;0.166;2022-12-10T11:02:03;1.40;99.90
15630;DHT22;7914;50.842;0.166;2022-12-10T11:04:37;1.40;99.90
15630;DHT22;7914;50.842;0.166;2022-12-10T11:07:05;1.50;99.90
15630;DHT22;7914;50.842;0.166;2022-12-10T11:09:36;1.50;99.90
15630;DHT22;7914;50.842;0.166;2022-12-10T11:12:10;1.60;99.90
15630;DHT22;7914;50.842;0.166;2022-12-10T11:14:46;1.70;99.90
15630;DHT22;7914;50.842;0.166;2022-12-10T11:17:23;1.70;99.90
15630;DHT22;7914;50.842;0.166;2022-12-10T11:19:54;1.80;99.90
15630;DHT22;7914;50.842;0.166;2022-12-10T11:24:51;1.80;99.90
15630;DHT22;7914;50.842;0.166;2022-12-10T11:30:11;2.00;99.90
15630;DHT22;7914;50.842;0.166;2022-12-10T11:38:13;2.20;99.90
15630;DHT22;7914;50.842;0.166;2022-12-10T11:40:51;2.20;99.90
15630;DHT22;7914;50.842;0.166;2022-12-10T11:43:44;2.20;99.90
15630;DHT22;7914;50.842;0.166;2022-12-10T11:46:19;2.20;99.90
15630;DHT22;7914;50.842;0.166;2022-12-10T11:57:44;2.20;99.90
15630;DHT22;7914;50.842;0.166;2022-12-10T12:00:20;2.20;99.90
15630;DHT22;7914;50.842;0.166;2022-12-10T12:03:12;2.30;99.90
15630;DHT22;7914;50.842;0.166;2022-12-10T12:08:16;2.20;99.90
15630;DHT22;7914;50.842;0.166;2022-12-10T12:10:54;2.30;99.90
15630;DHT22;7914;50.842;0.166;2022-12-10T12:13:27;2.30;99.90
15630;DHT22;7914;50.842;0.166;2022-12-10T12:16:11;2.30;99.90
15630;DHT22;7914;50.842;0.166;2022-12-10T12:18:54;2.30;99.90
15630;DHT22;7914;50.842;0.166;2022-12-10T12:21:21;2.30;99.90
15630;DHT22;7914;50.842;0.166;2022-12-10T12:26:36;2.30;99.90
15630;DHT22;7914;50.842;0.166;2022-12-10T12:29:39;2.30;99.90
15630;DHT22;7914;50.842;0.166;2022-12-10T12:32:25;2.30;99.90
15630;DHT22;7914;50.842;0.166;2022-12-10T12:35:04;2.30;99.90
15630;DHT22;7914;50.842;0.166;2022-12-10T12:38:03;2.30;99.90
15630;DHT22;7914;50.842;0.166;2022-12-10T12:40:49;2.30;99.90
15630;DHT22;7914;50.842;0.166;2022-12-10T12:43:20;2.30;99.90
15630;DHT22;7914;50.842;0.166;2022-12-10T12:45:49;2.40;99.90
15630;DHT22;7914;50.842;0.166;2022-12-10T12:48:24;2.50;99.90
15630;DHT22;7914;50.842;0.166;2022-12-10T12:51:10;2.50;99.90
15630;DHT22;7914;50.842;0.166;2022-12-10T12:53:37;2.50;99.90
15630;DHT22;7914;50.842;0.166;2022-12-10T12:56:07;2.50;99.90
15630;DHT22;7914;50.842;0.166;2022-12-10T13:04:03;2.60;99.90
15630;DHT22;7914;50.842;0.166;2022-12-10T13:06:32;2.60;99.90
15630;DHT22;7914;50.842;0.166;2022-12-10T13:19:29;2.70;99.90
15630;DHT22;7914;50.842;0.166;2022-12-10T13:22:11;2.70;99.90
15630;DHT22;7914;50.842;0.166;2022-12-10T13:27:22;2.80;99.90
15630;DHT22;7914;50.842;0.166;2022-12-10T13:30:27;2.90;99.90
15630;DHT22;7914;50.842;0.166;2022-12-10T13:33:24;3.00;99.90
15630;DHT22;7914;50.842;0.166;2022-12-10T13:35:58;3.00;99.90
15630;DHT22;7914;50.842;0.166;2022-12-10T13:38:26;3.00;99.90
15630;DHT22;7914;50.842;0.166;2022-12-10T13:40:59;3.00;99.90
15630;DHT22;7914;50.842;0.166;2022-12-10T13:43:56;3.00;99.90
15630;DHT22;7914;50.842;0.166;2022-12-10T13:52:25;2.90;99.90
15630;DHT22;7914;50.842;0.166;2022-12-10T13:55:20;2.90;99.90
15630;DHT22;7914;50.842;0.166;2022-12-10T13:58:09;2.80;99.90
15630;DHT22;7914;50.842;0.166;2022-12-10T14:06:20;2.80;99.90
15630;DHT22;7914;50.842;0.166;2022-12-10T14:12:04;2.70;99.90
15630;DHT22;7914;50.842;0.166;2022-12-10T14:14:40;2.80;99.90
15630;DHT22;7914;50.842;0.166;2022-12-10T14:17:14;2.80;99.90
15630;DHT22;7914;50.842;0.166;2022-12-10T14:19:42;2.80;99.90
15630;DHT22;7914;50.842;0.166;2022-12-10T14:22:17;2.80;99.90
15630;DHT22;7914;50.842;0.166;2022-12-10T14:24:48;2.80;99.90
15630;DHT22;7914;50.842;0.166;2022-12-10T14:27:20;2.80;99.90
15630;DHT22;7914;50.842;0.166;2022-12-10T14:30:02;2.80;99.90
15630;DHT22;7914;50.842;0.166;2022-12-10T14:32:37;2.70;99.90
15630;DHT22;7914;50.842;0.166;2022-12-10T14:35:06;2.70;99.90
15630;DHT22;7914;50.842;0.166;2022-12-10T14:37:35;2.70;99.90
15630;DHT22;7914;50.842;0.166;2022-12-10T14:40:05;2.70;99.90
15630;DHT22;7914;50.842;0.166;2022-12-10T14:42:31;2.70;99.90
15630;DHT22;7914;50.842;0.166;2022-12-10T14:44:59;2.70;99.90
15630;DHT22;7914;50.842;0.166;2022-12-10T14:47:26;2.70;99.90
15630;DHT22;7914;50.842;0.166;2022-12-10T14:49:54;2.70;99.90
15630;DHT22;7914;50.842;0.166;2022-12-10T14:52:30;2.70;99.90
15630;DHT22;7914;50.842;0.166;2022-12-10T14:54:58;2.60;99.90
15630;DHT22;7914;50.842;0.166;2022-12-10T14:57:29;2.50;99.90
15630;DHT22;7914;50.842;0.166;2022-12-10T15:00:16;2.40;99.90
15630;DHT22;7914;50.842;0.166;2022-12-10T15:03:09;2.20;99.90
15630;DHT22;7914;50.842;0.166;2022-12-10T15:05:37;2.00;99.90
15630;DHT22;7914;50.842;0.166;2022-12-10T15:08:21;1.90;99.90
15630;DHT22;7914;50.842;0.166;2022-12-10T15:10:51;1.80;99.90
15630;DHT22;7914;50.842;0.166;2022-12-10T15:13:41;1.70;99.90
15630;DHT22;7914;50.842;0.166;2022-12-10T15:16:20;1.70;99.90
15630;DHT22;7914;50.842;0.166;2022-12-10T15:18:52;1.80;99.90
15630;DHT22;7914;50.842;0.166;2022-12-10T15:21:22;1.70;99.90
15630;DHT22;7914;50.842;0.166;2022-12-10T15:23:49;1.60;99.90
15630;DHT22;7914;50.842;0.166;2022-12-10T15:26:21;1.50;99.90
15630;DHT22;7914;50.842;0.166;2022-12-10T15:28:49;1.50;99.90
15630;DHT22;7914;50.842;0.166;2022-12-10T15:31:22;1.40;99.90
15630;DHT22;7914;50.842;0.166;2022-12-10T15:34:01;1.40;99.90
15630;DHT22;7914;50.842;0.166;2022-12-10T15:36:50;1.30;99.90
15630;DHT22;7914;50.842;0.166;2022-12-10T15:39:25;1.20;99.90
15630;DHT22;7914;50.842;0.166;2022-12-10T15:41:57;1.20;99.90
15630;DHT22;7914;50.842;0.166;2022-12-10T15:47:12;1.00;99.90
15630;DHT22;7914;50.842;0.166;2022-12-10T15:49:40;0.90;99.90
15630;DHT22;7914;50.842;0.166;2022-12-10T15:52:09;0.80;99.90
15630;DHT22;7914;50.842;0.166;2022-12-10T15:54:39;0.80;99.90
15630;DHT22;7914;50.842;0.166;2022-12-10T15:59:41;0.70;99.90
15630;DHT22;7914;50.842;0.166;2022-12-10T16:07:43;0.60;99.90
15630;DHT22;7914;50.842;0.166;2022-12-10T16:10:10;0.50;99.90
15630;DHT22;7914;50.842;0.166;2022-12-10T16:12:37;0.40;99.90
15630;DHT22;7914;50.842;0.166;2022-12-10T16:15:04;0.40;99.90
15630;DHT22;7914;50.842;0.166;2022-12-10T16:17:30;0.30;99.90
15630;DHT22;7914;50.842;0.166;2022-12-10T16:20:00;0.30;99.90
15630;DHT22;7914;50.842;0.166;2022-12-10T16:22:31;0.20;99.90
15630;DHT22;7914;50.842;0.166;2022-12-10T16:24:56;0.10;99.90
15630;DHT22;7914;50.842;0.166;2022-12-10T16:27:22;0.10;99.90
15630;DHT22;7914;50.842;0.166;2022-12-10T16:29:47;0.10;99.90
15630;DHT22;7914;50.842;0.166;2022-12-10T16:32:13;0.10;99.90
15630;DHT22;7914;50.842;0.166;2022-12-10T16:34:39;0.10;99.90
15630;DHT22;7914;50.842;0.166;2022-12-10T16:37:05;0.10;99.90
15630;DHT22;7914;50.842;0.166;2022-12-10T16:39:31;0.10;99.90
15630;DHT22;7914;50.842;0.166;2022-12-10T16:41:57;0.20;99.90
15630;DHT22;7914;50.842;0.166;2022-12-10T16:44:23;0.20;99.90
15630;DHT22;7914;50.842;0.166;2022-12-10T16:46:49;0.20;99.90
15630;DHT22;7914;50.842;0.166;2022-12-10T16:49:14;0.10;99.90
15630;DHT22;7914;50.842;0.166;2022-12-10T16:51:40;0.10;99.90
15630;DHT22;7914;50.842;0.166;2022-12-10T16:54:09;0.10;99.90
15630;DHT22;7914;50.842;0.166;2022-12-10T16:56:37;0.10;99.90
15630;DHT22;7914;50.842;0.166;2022-12-10T16:59:03;0.10;99.90
15630;DHT22;7914;50.842;0.166;2022-12-10T17:01:29;0.00;99.90
15630;DHT22;7914;50.842;0.166;2022-12-10T17:03:57;0.00;99.90
15630;DHT22;7914;50.842;0.166;2022-12-10T17:06:24;-0.10;99.90
15630;DHT22;7914;50.842;0.166;2022-12-10T17:08:51;-0.10;99.90
15630;DHT22;7914;50.842;0.166;2022-12-10T17:11:20;-0.20;99.90
15630;DHT22;7914;50.842;0.166;2022-12-10T17:14:06;-0.30;99.90
15630;DHT22;7914;50.842;0.166;2022-12-10T17:16:34;-0.40;99.90
15630;DHT22;7914;50.842;0.166;2022-12-10T17:19:00;-0.40;99.90
15630;DHT22;7914;50.842;0.166;2022-12-10T17:21:26;-0.60;99.90
15630;DHT22;7914;50.842;0.166;2022-12-10T17:23:52;-0.60;99.90
15630;DHT22;7914;50.842;0.166;2022-12-10T17:26:26;-0.70;99.90
15630;DHT22;7914;50.842;0.166;2022-12-10T17:28:53;-0.70;99.90
15630;DHT22;7914;50.842;0.166;2022-12-10T17:31:19;-0.70;99.90
15630;DHT22;7914;50.842;0.166;2022-12-10T17:33:45;-0.70;99.90
15630;DHT22;7914;50.842;0.166;2022-12-10T17:36:11;-0.80;99.90
15630;DHT22;7914;50.842;0.166;2022-12-10T17:38:36;-0.80;99.90
15630;DHT22;7914;50.842;0.166;2022-12-10T17:41:02;-0.80;99.90
15630;DHT22;7914;50.842;0.166;2022-12-10T17:43:30;-0.80;99.90
15630;DHT22;7914;50.842;0.166;2022-12-10T17:45:56;-0.80;99.90
15630;DHT22;7914;50.842;0.166;2022-12-10T17:48:22;-0.80;99.90
15630;DHT22;7914;50.842;0.166;2022-12-10T17:50:48;-0.80;99.90